createdAt,value
2017-08-16T00:01:19.428Z,17.70
2017-08-16T00:03:47.007Z,17.70
2017-08-16T00:06:14.575Z,17.70
2017-08-16T00:08:42.357Z,17.70
2017-08-16T00:11:09.950Z,17.70
2017-08-16T00:13:37.528Z,17.60
2017-08-16T00:16:05.917Z,17.60
2017-08-16T00:18:33.500Z,17.60
2017-08-16T00:21:01.094Z,17.60
2017-08-16T00:23:28.727Z,17.60
2017-08-16T00:25:57.098Z,17.60
2017-08-16T00:28:24.695Z,17.50
2017-08-16T00:30:52.350Z,17.60
2017-08-16T00:33:19.927Z,17.60
2017-08-16T00:35:48.294Z,17.50
2017-08-16T00:38:15.933Z,17.50
2017-08-16T00:40:44.286Z,17.50
2017-08-16T00:43:11.854Z,17.50
2017-08-16T00:45:39.502Z,17.40
2017-08-16T00:48:07.098Z,17.40
2017-08-16T00:50:34.681Z,17.40
2017-08-16T00:53:02.540Z,17.40
2017-08-16T00:55:30.121Z,17.40
2017-08-16T00:57:57.726Z,17.30
2017-08-16T01:00:25.358Z,17.30
2017-08-16T01:02:53.717Z,17.20
2017-08-16T01:05:21.306Z,17.20
2017-08-16T01:07:48.945Z,17.20
2017-08-16T01:10:16.532Z,17.20
2017-08-16T01:12:44.107Z,17.10
2017-08-16T01:15:11.736Z,17.10
2017-08-16T01:17:40.078Z,17.10
2017-08-16T01:20:07.665Z,17.00
2017-08-16T01:22:35.300Z,17.00
2017-08-16T01:25:02.893Z,17.00
2017-08-16T01:27:30.480Z,17.00
2017-08-16T01:29:58.891Z,17.00
2017-08-16T01:32:26.493Z,16.90
2017-08-16T01:34:54.080Z,16.90
2017-08-16T01:37:21.715Z,16.90
2017-08-16T01:39:49.299Z,16.90
2017-08-16T01:42:16.883Z,16.90
2017-08-16T01:44:44.524Z,16.90
2017-08-16T01:47:12.094Z,16.80
2017-08-16T01:49:39.671Z,16.80
2017-08-16T01:52:07.355Z,16.80
2017-08-16T01:54:34.939Z,16.80
2017-08-16T01:57:02.503Z,16.80
2017-08-16T01:59:30.125Z,16.80
2017-08-16T02:01:57.683Z,16.90
2017-08-16T02:04:25.234Z,16.90
2017-08-16T02:06:52.836Z,17.00
2017-08-16T02:09:20.384Z,17.00
2017-08-16T02:11:47.932Z,17.00
2017-08-16T02:14:15.528Z,17.00
2017-08-16T02:16:43.851Z,17.20
2017-08-16T02:19:11.403Z,17.10
2017-08-16T02:21:39.002Z,17.20
2017-08-16T02:24:06.602Z,17.20
2017-08-16T02:26:34.246Z,17.20
2017-08-16T02:29:01.936Z,17.20
2017-08-16T02:31:29.521Z,17.30
2017-08-16T02:33:57.108Z,17.20
2017-08-16T02:36:25.750Z,17.20
2017-08-16T02:38:53.338Z,17.20
2017-08-16T02:41:20.915Z,17.30
2017-08-16T02:43:48.558Z,17.20
2017-08-16T02:46:16.140Z,17.20
2017-08-16T02:48:43.720Z,17.20
2017-08-16T02:51:11.555Z,17.20
2017-08-16T02:53:39.203Z,17.30
2017-08-16T02:56:06.791Z,17.20
2017-08-16T02:58:34.442Z,17.20
2017-08-16T03:01:02.032Z,17.20
2017-08-16T03:03:29.653Z,17.20
2017-08-16T03:05:57.301Z,17.20
2017-08-16T03:08:24.902Z,17.20
2017-08-16T03:10:52.502Z,17.20
2017-08-16T03:13:20.906Z,17.20
2017-08-16T03:15:48.483Z,17.20
2017-08-16T03:18:16.081Z,17.20
2017-08-16T03:20:43.731Z,17.20
2017-08-16T03:23:11.358Z,17.30
2017-08-16T03:25:38.933Z,17.30
2017-08-16T03:28:06.568Z,17.30
2017-08-16T03:30:34.145Z,17.30
2017-08-16T03:33:01.724Z,17.30
2017-08-16T03:35:29.354Z,17.30
2017-08-16T03:37:56.940Z,17.40
2017-08-16T03:40:24.524Z,17.40
2017-08-16T03:42:52.142Z,17.40
2017-08-16T03:45:19.767Z,17.40
2017-08-16T03:47:47.346Z,17.40
2017-08-16T03:50:14.975Z,17.40
2017-08-16T03:52:42.555Z,17.40
2017-08-16T03:55:10.131Z,17.40
2017-08-16T03:57:38.529Z,17.50
2017-08-16T04:00:06.797Z,17.40
2017-08-16T04:02:34.388Z,17.50
2017-08-16T04:05:02.822Z,17.50
2017-08-16T04:07:30.896Z,17.50
2017-08-16T04:09:59.985Z,17.50
2017-08-16T04:12:27.852Z,17.50
2017-08-16T04:14:55.483Z,17.60
2017-08-16T04:17:23.886Z,17.60
2017-08-16T04:19:51.548Z,17.60
2017-08-16T04:22:19.159Z,17.60
2017-08-16T04:24:46.749Z,17.60
2017-08-16T04:27:14.372Z,17.60
2017-08-16T04:29:41.954Z,17.70
2017-08-16T04:32:10.340Z,17.70
2017-08-16T04:34:38.734Z,17.80
2017-08-16T04:37:06.324Z,17.70
2017-08-16T04:39:33.923Z,17.80
2017-08-16T04:42:01.564Z,17.80
2017-08-16T04:44:29.156Z,17.90
2017-08-16T04:46:57.327Z,17.90
2017-08-16T04:49:25.170Z,18.00
2017-08-16T04:51:52.777Z,18.00
2017-08-16T04:54:20.363Z,18.00
2017-08-16T04:56:48.126Z,18.00
2017-08-16T04:59:15.702Z,18.00
2017-08-16T05:01:43.275Z,18.00
2017-08-16T05:04:11.040Z,18.00
2017-08-16T05:06:38.745Z,18.10
2017-08-16T05:09:06.355Z,18.10
2017-08-16T05:11:33.984Z,18.10
2017-08-16T05:14:02.363Z,18.20
2017-08-16T05:16:29.995Z,18.20
2017-08-16T05:18:58.409Z,18.20
2017-08-16T05:21:26.015Z,18.20
2017-08-16T05:23:54.372Z,18.30
2017-08-16T05:26:22.790Z,18.30
2017-08-16T05:28:50.367Z,18.20
2017-08-16T05:31:17.939Z,18.30
2017-08-16T05:33:45.608Z,18.30
2017-08-16T05:36:13.192Z,18.30
2017-08-16T05:38:40.817Z,18.30
2017-08-16T05:41:08.456Z,18.30
2017-08-16T05:43:36.039Z,18.20
2017-08-16T05:46:03.628Z,18.30
2017-08-16T05:48:31.252Z,18.40
2017-08-16T05:50:58.834Z,18.40
2017-08-16T05:53:26.423Z,18.40
2017-08-16T05:55:54.837Z,18.40
2017-08-16T05:58:22.428Z,18.40
2017-08-16T06:00:50.780Z,18.90
2017-08-16T06:03:18.412Z,18.90
2017-08-16T06:05:46.010Z,19.30
2017-08-16T06:08:13.596Z,19.60
2017-08-16T06:10:41.221Z,19.70
2017-08-16T06:13:08.812Z,19.70
2017-08-16T06:15:37.169Z,19.60
2017-08-16T06:18:05.584Z,19.60
2017-08-16T06:20:33.168Z,19.60
2017-08-16T06:23:00.753Z,19.60
2017-08-16T06:25:28.388Z,19.70
2017-08-16T06:27:55.980Z,19.80
2017-08-16T06:30:23.566Z,19.90
2017-08-16T06:32:51.947Z,21.10
2017-08-16T06:35:19.528Z,21.10
2017-08-16T06:37:47.111Z,21.20
2017-08-16T06:40:14.756Z,21.10
2017-08-16T06:42:42.331Z,21.00
2017-08-16T06:45:09.923Z,20.90
2017-08-16T06:47:37.553Z,20.80
2017-08-16T06:50:05.128Z,20.80
2017-08-16T06:52:33.472Z,21.80
2017-08-16T06:55:01.116Z,21.80
2017-08-16T06:57:28.709Z,22.50
2017-08-16T06:59:56.292Z,22.90
2017-08-16T07:02:23.931Z,23.30
2017-08-16T07:04:51.508Z,23.80
2017-08-16T07:07:19.091Z,24.10
2017-08-16T07:09:46.729Z,24.10
2017-08-16T07:12:14.311Z,24.10
2017-08-16T07:14:41.883Z,23.90
2017-08-16T07:17:09.564Z,23.70
2017-08-16T07:19:37.144Z,23.50
2017-08-16T07:22:04.720Z,23.60
2017-08-16T07:24:32.349Z,23.40
2017-08-16T07:26:59.946Z,23.30
2017-08-16T07:29:27.536Z,23.10
2017-08-16T07:31:55.173Z,22.60
2017-08-16T07:34:22.757Z,22.60
2017-08-16T07:36:51.976Z,22.20
2017-08-16T07:39:20.598Z,22.20
2017-08-16T07:41:48.175Z,21.90
2017-08-16T07:44:15.778Z,21.70
2017-08-16T07:46:43.438Z,21.60
2017-08-16T07:49:11.771Z,21.20
2017-08-16T07:51:39.352Z,21.20
2017-08-16T07:54:07.758Z,21.00
2017-08-16T07:56:35.336Z,21.00
2017-08-16T07:59:02.920Z,20.80
2017-08-16T08:01:30.568Z,20.80
2017-08-16T08:03:58.139Z,20.70
2017-08-16T08:06:25.721Z,20.70
2017-08-16T08:08:53.368Z,20.70
2017-08-16T08:11:20.939Z,20.70
2017-08-16T08:13:48.533Z,20.60
2017-08-16T08:16:16.166Z,20.60
2017-08-16T08:18:43.739Z,20.60
2017-08-16T08:21:11.317Z,20.60
2017-08-16T08:23:38.962Z,20.70
2017-08-16T08:26:06.555Z,20.80
2017-08-16T08:28:34.136Z,20.90
2017-08-16T08:31:02.556Z,21.10
2017-08-16T08:33:30.147Z,21.10
2017-08-16T08:35:57.707Z,21.20
2017-08-16T08:38:25.330Z,21.20
2017-08-16T08:40:53.673Z,21.30
2017-08-16T08:43:21.488Z,21.30
2017-08-16T08:45:49.488Z,21.60
2017-08-16T08:48:17.823Z,21.80
2017-08-16T08:50:45.413Z,21.80
2017-08-16T08:53:13.037Z,21.90
2017-08-16T08:55:41.385Z,21.90
2017-08-16T08:58:08.981Z,21.90
2017-08-16T09:00:36.596Z,22.10
2017-08-16T09:03:04.940Z,22.70
2017-08-16T09:05:32.520Z,22.70
2017-08-16T09:08:00.137Z,23.30
2017-08-16T09:10:27.702Z,24.00
2017-08-16T09:12:55.276Z,24.50
2017-08-16T09:15:22.901Z,24.90
2017-08-16T09:17:50.470Z,25.20
2017-08-16T09:20:18.058Z,25.70
2017-08-16T09:22:46.431Z,26.20
2017-08-16T09:25:14.772Z,26.40
2017-08-16T09:27:42.362Z,26.40
2017-08-16T09:30:10.055Z,26.30
2017-08-16T09:32:37.626Z,26.00
2017-08-16T09:35:05.985Z,25.60
2017-08-16T09:37:33.621Z,25.50
2017-08-16T09:40:01.204Z,25.60
2017-08-16T09:42:28.778Z,25.70
2017-08-16T09:44:56.708Z,25.90
2017-08-16T09:47:24.305Z,26.00
2017-08-16T09:49:51.883Z,26.10
2017-08-16T09:52:19.530Z,26.10
2017-08-16T09:54:47.117Z,26.40
2017-08-16T09:57:14.718Z,26.80
2017-08-16T09:59:42.328Z,27.30
2017-08-16T10:02:10.690Z,27.30
2017-08-16T10:04:38.250Z,27.30
2017-08-16T10:07:06.779Z,26.70
2017-08-16T10:09:34.370Z,26.70
2017-08-16T10:12:01.978Z,26.20
2017-08-16T10:14:29.600Z,26.00
2017-08-16T10:16:57.176Z,26.00
2017-08-16T10:19:24.756Z,26.10
2017-08-16T10:21:52.380Z,26.20
2017-08-16T10:24:20.728Z,27.30
2017-08-16T10:26:48.323Z,27.30
2017-08-16T10:29:15.965Z,27.60
2017-08-16T10:31:43.528Z,27.20
2017-08-16T10:34:11.108Z,26.80
2017-08-16T10:36:39.700Z,26.90
2017-08-16T10:39:07.275Z,26.80
2017-08-16T10:41:34.926Z,27.10
2017-08-16T10:44:02.535Z,27.20
2017-08-16T10:46:30.134Z,27.00
2017-08-16T10:48:58.611Z,26.80
2017-08-16T10:51:26.397Z,26.60
2017-08-16T10:53:53.989Z,26.20
2017-08-16T10:56:21.554Z,26.00
2017-08-16T10:58:49.960Z,26.20
2017-08-16T11:01:17.532Z,26.20
2017-08-16T11:03:45.110Z,26.50
2017-08-16T11:06:13.632Z,26.80
2017-08-16T11:08:41.194Z,26.90
2017-08-16T11:11:08.768Z,26.80
2017-08-16T11:13:37.186Z,26.20
2017-08-16T11:16:04.764Z,26.20
2017-08-16T11:18:32.368Z,26.20
2017-08-16T11:21:00.007Z,26.40
2017-08-16T11:23:27.578Z,26.60
2017-08-16T11:25:55.151Z,26.50
2017-08-16T11:28:23.534Z,26.70
2017-08-16T11:30:51.111Z,26.60
2017-08-16T11:33:18.799Z,26.30
2017-08-16T11:35:47.202Z,26.00
2017-08-16T11:38:14.787Z,25.90
2017-08-16T11:40:42.381Z,25.80
2017-08-16T11:43:10.015Z,25.90
2017-08-16T11:45:37.578Z,26.10
2017-08-16T11:48:05.152Z,26.20
2017-08-16T11:50:32.782Z,26.10
2017-08-16T11:53:00.361Z,26.10
2017-08-16T11:55:27.944Z,26.10
2017-08-16T11:57:55.797Z,25.80
2017-08-16T12:00:23.371Z,25.80
2017-08-16T12:02:50.945Z,25.80
2017-08-16T12:05:18.719Z,26.00
2017-08-16T12:07:46.300Z,26.00
2017-08-16T12:10:13.897Z,25.90
2017-08-16T12:12:42.289Z,25.50
2017-08-16T12:15:09.878Z,25.50
2017-08-16T12:17:37.466Z,25.40
2017-08-16T12:20:05.088Z,25.10
2017-08-16T12:22:32.675Z,25.00
2017-08-16T12:25:00.248Z,25.30
2017-08-16T12:27:27.902Z,25.40
2017-08-16T12:29:55.476Z,25.40
2017-08-16T12:32:23.838Z,25.20
2017-08-16T12:34:52.234Z,25.00
2017-08-16T12:37:19.812Z,25.00
2017-08-16T12:39:47.383Z,24.70
2017-08-16T12:42:15.781Z,24.80
2017-08-16T12:44:43.364Z,24.80
2017-08-16T12:47:10.957Z,24.90
2017-08-16T12:49:38.566Z,25.10
2017-08-16T12:52:06.292Z,25.30
2017-08-16T12:54:33.869Z,25.30
2017-08-16T12:57:02.334Z,25.00
2017-08-16T12:59:30.763Z,25.10
2017-08-16T13:01:58.326Z,25.10
2017-08-16T13:04:25.964Z,25.30
2017-08-16T13:06:53.554Z,25.40
2017-08-16T13:09:21.142Z,25.60
2017-08-16T13:11:48.763Z,25.70
2017-08-16T13:14:16.364Z,25.50
2017-08-16T13:16:44.716Z,25.50
2017-08-16T13:19:12.526Z,25.50
2017-08-16T13:21:40.109Z,25.70
2017-08-16T13:24:07.775Z,25.80
2017-08-16T13:26:35.440Z,25.90
2017-08-16T13:29:03.021Z,25.80
2017-08-16T13:31:30.600Z,25.80
2017-08-16T13:33:58.980Z,25.90
2017-08-16T13:36:26.572Z,25.90
2017-08-16T13:38:54.243Z,25.70
2017-08-16T13:41:22.636Z,25.20
2017-08-16T13:43:50.215Z,25.20
2017-08-16T13:46:17.841Z,25.20
2017-08-16T13:48:45.499Z,25.30
2017-08-16T13:51:13.080Z,25.40
2017-08-16T13:53:40.646Z,25.60
2017-08-16T13:56:09.069Z,25.60
2017-08-16T13:58:36.645Z,25.60
2017-08-16T14:01:05.036Z,25.70
2017-08-16T14:03:32.669Z,25.70
2017-08-16T14:06:00.238Z,25.70
2017-08-16T14:08:27.912Z,25.40
2017-08-16T14:10:55.531Z,25.20
2017-08-16T14:13:23.094Z,24.90
2017-08-16T14:15:50.847Z,24.70
2017-08-16T14:18:18.462Z,24.70
2017-08-16T14:20:46.045Z,24.90
2017-08-16T14:23:13.605Z,25.00
2017-08-16T14:25:41.244Z,24.90
2017-08-16T14:28:08.834Z,24.90
2017-08-16T14:30:36.413Z,25.00
2017-08-16T14:33:04.046Z,25.10
2017-08-16T14:35:31.731Z,25.20
2017-08-16T14:38:00.103Z,25.40
2017-08-16T14:40:29.654Z,25.40
2017-08-16T14:42:57.294Z,25.40
2017-08-16T14:45:24.873Z,25.50
2017-08-16T14:47:53.263Z,25.20
2017-08-16T14:50:20.835Z,25.20
2017-08-16T14:52:48.458Z,25.20
2017-08-16T14:55:16.113Z,25.10
2017-08-16T14:57:43.700Z,24.90
2017-08-16T15:00:11.444Z,24.90
2017-08-16T15:02:39.050Z,25.00
2017-08-16T15:05:06.615Z,25.00
2017-08-16T15:07:34.203Z,25.10
2017-08-16T15:10:02.597Z,25.20
2017-08-16T15:12:30.259Z,25.20
2017-08-16T15:14:57.845Z,25.20
2017-08-16T15:17:26.225Z,24.90
2017-08-16T15:19:53.795Z,24.90
2017-08-16T15:22:21.402Z,24.90
2017-08-16T15:24:49.800Z,24.80
2017-08-16T15:27:17.389Z,24.80
2017-08-16T15:29:44.958Z,24.70
2017-08-16T15:32:13.541Z,24.60
2017-08-16T15:34:41.120Z,24.60
2017-08-16T15:37:08.704Z,24.60
2017-08-16T15:39:37.087Z,24.50
2017-08-16T15:42:04.658Z,24.50
2017-08-16T15:44:32.243Z,24.50
2017-08-16T15:46:59.855Z,24.40
2017-08-16T15:49:28.254Z,24.30
2017-08-16T15:51:55.843Z,24.20
2017-08-16T15:54:23.465Z,24.20
2017-08-16T15:56:51.795Z,24.10
2017-08-16T15:59:19.390Z,24.10
2017-08-16T16:01:47.008Z,24.00
2017-08-16T16:04:15.367Z,24.10
2017-08-16T16:06:43.722Z,24.10
2017-08-16T16:09:12.326Z,24.00
2017-08-16T16:11:39.891Z,24.00
2017-08-16T16:14:07.487Z,24.00
2017-08-16T16:16:35.881Z,23.90
2017-08-16T16:19:03.478Z,23.90
2017-08-16T16:21:31.061Z,23.90
2017-08-16T16:23:58.666Z,23.80
2017-08-16T16:26:26.258Z,23.70
2017-08-16T16:28:53.879Z,23.60
2017-08-16T16:31:22.262Z,23.40
2017-08-16T16:33:49.853Z,23.40
2017-08-16T16:36:17.437Z,23.40
2017-08-16T16:38:45.080Z,23.30
2017-08-16T16:41:12.687Z,23.20
2017-08-16T16:43:40.264Z,23.10
2017-08-16T16:46:08.660Z,22.90
2017-08-16T16:48:36.240Z,22.90
2017-08-16T16:51:03.832Z,22.80
2017-08-16T16:53:31.453Z,22.80
2017-08-16T16:55:59.800Z,22.70
2017-08-16T16:58:27.376Z,22.70
2017-08-16T17:00:54.992Z,22.60
2017-08-16T17:03:22.582Z,22.60
2017-08-16T17:05:50.173Z,22.60
2017-08-16T17:08:17.788Z,22.50
2017-08-16T17:10:45.360Z,22.50
2017-08-16T17:13:12.928Z,22.40
2017-08-16T17:15:41.329Z,22.40
2017-08-16T17:18:08.922Z,22.30
2017-08-16T17:20:37.260Z,22.30
2017-08-16T17:23:04.926Z,22.20
2017-08-16T17:25:32.514Z,22.20
2017-08-16T17:28:00.083Z,22.20
2017-08-16T17:30:27.737Z,22.10
2017-08-16T17:32:55.317Z,22.10
2017-08-16T17:35:23.677Z,21.90
2017-08-16T17:37:52.210Z,21.90
2017-08-16T17:40:19.806Z,21.90
2017-08-16T17:42:47.390Z,21.80
2017-08-16T17:45:15.129Z,21.80
2017-08-16T17:47:43.791Z,21.70
2017-08-16T17:50:12.297Z,21.70
2017-08-16T17:52:41.139Z,21.60
2017-08-16T17:55:08.771Z,21.50
2017-08-16T17:57:36.878Z,21.50
2017-08-16T18:00:04.808Z,21.40
2017-08-16T18:02:32.829Z,21.30
2017-08-16T18:05:00.524Z,21.20
2017-08-16T18:07:29.085Z,21.10
2017-08-16T18:09:57.141Z,21.00
2017-08-16T18:12:24.770Z,21.00
2017-08-16T18:14:52.536Z,20.90
2017-08-16T18:17:20.300Z,20.80
2017-08-16T18:19:48.695Z,20.70
2017-08-16T18:22:16.556Z,20.70
2017-08-16T18:24:44.477Z,20.60
2017-08-16T18:27:12.118Z,20.60
2017-08-16T18:29:41.104Z,20.40
2017-08-16T18:32:09.022Z,20.40
2017-08-16T18:34:36.596Z,20.30
2017-08-16T18:37:05.004Z,20.20
2017-08-16T18:39:32.659Z,20.10
2017-08-16T18:42:00.248Z,20.10
2017-08-16T18:44:28.910Z,20.00
2017-08-16T18:46:57.436Z,19.90
2017-08-16T18:49:25.028Z,19.90
2017-08-16T18:51:54.007Z,19.80
2017-08-16T18:54:21.993Z,19.80
2017-08-16T18:56:49.572Z,19.70
2017-08-16T18:59:17.860Z,19.70
2017-08-16T19:01:45.513Z,19.70
2017-08-16T19:04:13.317Z,19.70
2017-08-16T19:06:41.757Z,19.60
2017-08-16T19:09:09.823Z,19.50
2017-08-16T19:11:38.217Z,19.50
2017-08-16T19:14:06.459Z,19.50
2017-08-16T19:16:34.454Z,19.50
2017-08-16T19:19:02.955Z,19.50
2017-08-16T19:21:30.691Z,19.40
2017-08-16T19:23:58.285Z,19.40
2017-08-16T19:26:25.912Z,19.40
2017-08-16T19:28:53.578Z,19.30
2017-08-16T19:31:21.205Z,19.30
2017-08-16T19:33:50.229Z,19.30
2017-08-16T19:36:18.332Z,19.30
2017-08-16T19:38:46.088Z,19.20
2017-08-16T19:41:13.801Z,19.20
2017-08-16T19:43:41.494Z,19.20
2017-08-16T19:46:09.333Z,19.20
2017-08-16T19:48:37.721Z,19.10
2017-08-16T19:51:06.596Z,19.10
2017-08-16T19:53:34.969Z,19.00
2017-08-16T19:56:03.315Z,19.00
2017-08-16T19:58:31.375Z,19.00
2017-08-16T20:00:59.839Z,18.90
2017-08-16T20:03:28.674Z,18.90
2017-08-16T20:05:57.205Z,18.80
2017-08-16T20:08:24.825Z,18.80
2017-08-16T20:10:53.264Z,18.70
2017-08-16T20:13:21.675Z,18.70
2017-08-16T20:15:49.248Z,18.70
2017-08-16T20:18:16.829Z,18.60
2017-08-16T20:20:44.461Z,18.60
2017-08-16T20:23:12.050Z,18.50
2017-08-16T20:25:39.632Z,18.50
2017-08-16T20:28:07.265Z,18.40
2017-08-16T20:30:34.841Z,18.40
2017-08-16T20:33:02.411Z,18.30
2017-08-16T20:35:30.807Z,18.30
2017-08-16T20:37:58.375Z,18.20
2017-08-16T20:40:25.957Z,18.20
2017-08-16T20:42:54.562Z,18.10
2017-08-16T20:45:22.145Z,18.10
2017-08-16T20:47:49.724Z,18.00
2017-08-16T20:50:18.117Z,17.90
2017-08-16T20:52:45.731Z,17.90
2017-08-16T20:55:13.321Z,17.90
2017-08-16T20:57:40.940Z,17.90
2017-08-16T21:00:08.542Z,17.80
2017-08-16T21:02:36.119Z,17.80
2017-08-16T21:05:03.749Z,17.70
2017-08-16T21:07:31.333Z,17.70
2017-08-16T21:09:58.930Z,17.70
2017-08-16T21:12:27.354Z,17.60
2017-08-16T21:14:54.941Z,17.60
2017-08-16T21:17:23.285Z,17.60
2017-08-16T21:19:50.927Z,17.50
2017-08-16T21:22:18.513Z,17.50
2017-08-16T21:24:46.082Z,17.50
2017-08-16T21:27:13.704Z,17.50
2017-08-16T21:29:41.285Z,17.40
2017-08-16T21:32:08.869Z,17.40
2017-08-16T21:34:37.272Z,17.30
2017-08-16T21:37:04.853Z,17.30
2017-08-16T21:39:32.424Z,17.30
2017-08-16T21:42:00.837Z,17.20
2017-08-16T21:44:28.437Z,17.20
2017-08-16T21:46:56.792Z,17.30
2017-08-16T21:49:24.400Z,17.20
2017-08-16T21:51:51.989Z,17.30
2017-08-16T21:54:19.618Z,17.30
2017-08-16T21:56:47.363Z,17.20
2017-08-16T21:59:15.709Z,17.20
2017-08-16T22:01:43.292Z,17.20
2017-08-16T22:04:11.055Z,17.20
2017-08-16T22:06:38.650Z,17.20
2017-08-16T22:09:06.237Z,17.20
2017-08-16T22:11:33.843Z,17.20
2017-08-16T22:14:01.433Z,17.20
2017-08-16T22:16:29.017Z,17.10
2017-08-16T22:18:56.793Z,17.10
2017-08-16T22:21:24.390Z,17.00
2017-08-16T22:23:51.980Z,17.00
2017-08-16T22:26:19.610Z,17.00
2017-08-16T22:28:47.196Z,16.90
2017-08-16T22:31:14.803Z,16.90
2017-08-16T22:33:42.438Z,16.90
2017-08-16T22:36:10.020Z,16.80
2017-08-16T22:38:37.609Z,16.80
2017-08-16T22:41:05.249Z,16.80
2017-08-16T22:43:32.848Z,16.80
2017-08-16T22:46:00.445Z,16.70
2017-08-16T22:48:28.100Z,16.70
2017-08-16T22:50:55.686Z,16.70
2017-08-16T22:53:23.276Z,16.70
2017-08-16T22:55:50.903Z,16.80
2017-08-16T22:58:18.507Z,16.80
2017-08-16T23:00:46.847Z,16.70
2017-08-16T23:03:14.485Z,16.70
2017-08-16T23:05:42.073Z,16.70
2017-08-16T23:08:09.679Z,16.60
2017-08-16T23:10:37.334Z,16.60
2017-08-16T23:13:04.915Z,16.60
2017-08-16T23:15:32.487Z,16.60
2017-08-16T23:18:00.113Z,16.60
2017-08-16T23:20:27.700Z,16.60
2017-08-16T23:22:55.288Z,16.60
2017-08-16T23:25:22.916Z,16.50
2017-08-16T23:27:51.255Z,16.40
2017-08-16T23:30:18.849Z,16.40
2017-08-16T23:32:46.489Z,16.40
2017-08-16T23:35:14.071Z,16.40
2017-08-16T23:37:41.646Z,16.30
2017-08-16T23:40:10.054Z,16.30
2017-08-16T23:42:37.652Z,16.30
2017-08-16T23:45:05.255Z,16.30
2017-08-16T23:47:33.025Z,16.30
2017-08-16T23:50:00.596Z,16.20
2017-08-16T23:52:28.953Z,16.20
2017-08-16T23:54:57.360Z,16.10
2017-08-16T23:57:24.952Z,16.20
2017-08-16T23:59:52.541Z,16.10
